createdAt,value
2022-08-29T00:00:26.642Z,84.13
2022-08-29T00:01:30.388Z,90.85
2022-08-29T00:02:32.950Z,86.50
2022-08-29T00:03:36.595Z,78.30
2022-08-29T00:04:39.255Z,85.43
2022-08-29T00:05:42.012Z,83.10
2022-08-29T00:06:44.643Z,82.22
2022-08-29T00:07:46.732Z,80.03
2022-08-29T00:08:49.188Z,81.57
2022-08-29T00:09:51.258Z,82.40
2022-08-29T00:10:55.875Z,87.28
2022-08-29T00:11:58.595Z,87.93
2022-08-29T00:13:00.856Z,86.95
2022-08-29T00:14:03.442Z,83.82
2022-08-29T00:15:08.333Z,86.30
2022-08-29T00:16:10.546Z,81.95
2022-08-29T00:17:12.688Z,82.30
2022-08-29T00:18:17.376Z,82.40
2022-08-29T00:19:19.701Z,79.20
2022-08-29T00:20:34.110Z,79.43
2022-08-29T00:21:36.951Z,81.55
2022-08-29T00:22:39.444Z,85.03
2022-08-29T00:23:44.001Z,81.32
2022-08-29T00:24:46.257Z,81.75
2022-08-29T00:25:49.084Z,85.65
2022-08-29T00:26:51.190Z,87.43
2022-08-29T00:27:53.786Z,82.25
2022-08-29T00:28:56.146Z,84.93
2022-08-29T00:29:58.207Z,83.30
2022-08-29T00:31:00.330Z,88.38
2022-08-29T00:32:02.643Z,84.93
2022-08-29T00:33:05.018Z,88.13
2022-08-29T00:34:07.164Z,85.47
2022-08-29T00:35:23.547Z,90.63
2022-08-29T00:36:26.512Z,89.20
2022-08-29T00:37:32.967Z,86.03
2022-08-29T00:38:35.844Z,86.93
2022-08-29T00:39:40.323Z,94.20
2022-08-29T00:40:51.884Z,90.20
2022-08-29T00:41:54.348Z,93.95
2022-08-29T00:42:56.676Z,90.53
2022-08-29T00:43:58.789Z,88.28
2022-08-29T00:45:01.071Z,91.05
2022-08-29T00:46:23.331Z,92.00
2022-08-29T00:47:33.241Z,92.97
2022-08-29T00:48:38.540Z,87.72
2022-08-29T00:49:45.536Z,91.88
2022-08-29T00:50:52.816Z,87.90
2022-08-29T00:51:57.812Z,91.68
2022-08-29T00:53:01.935Z,93.82
2022-08-29T00:54:09.935Z,87.72
2022-08-29T00:55:17.223Z,92.45
2022-08-29T00:56:19.881Z,87.50
2022-08-29T00:57:23.883Z,92.30
2022-08-29T00:58:31.742Z,88.22
2022-08-29T00:59:39.668Z,89.25
2022-08-29T01:00:44.008Z,85.85
2022-08-29T01:01:46.767Z,88.75
2022-08-29T01:02:49.130Z,89.32
2022-08-29T01:03:52.492Z,91.13
2022-08-29T01:04:54.747Z,86.78
2022-08-29T01:05:57.139Z,88.72
2022-08-29T01:07:00.365Z,92.07
2022-08-29T01:08:05.343Z,82.93
2022-08-29T01:09:08.920Z,88.50
2022-08-29T01:10:32.503Z,86.22
2022-08-29T01:11:53.696Z,86.05
2022-08-29T01:12:55.742Z,88.97
2022-08-29T01:14:00.093Z,89.68
2022-08-29T01:15:07.692Z,88.55
2022-08-29T01:16:12.030Z,85.80
2022-08-29T01:17:26.049Z,85.05
2022-08-29T01:18:32.637Z,85.95
2022-08-29T01:19:55.176Z,88.38
2022-08-29T01:21:24.655Z,80.25
2022-08-29T01:22:57.046Z,82.45
2022-08-29T01:24:05.616Z,84.20
2022-08-29T01:25:14.056Z,84.18
2022-08-29T01:26:16.710Z,82.30
2022-08-29T01:27:22.120Z,84.28
2022-08-29T01:28:35.208Z,83.85
2022-08-29T01:29:37.622Z,85.18
2022-08-29T01:31:02.548Z,77.50
2022-08-29T01:32:05.651Z,83.32
2022-08-29T01:33:08.054Z,83.13
2022-08-29T01:34:13.278Z,82.63
2022-08-29T01:35:15.827Z,81.18
2022-08-29T01:36:23.123Z,78.35
2022-08-29T01:37:31.266Z,80.95
2022-08-29T01:38:33.895Z,79.37
2022-08-29T01:39:39.071Z,76.93
2022-08-29T01:40:41.436Z,77.38
2022-08-29T01:41:43.844Z,81.88
2022-08-29T01:42:46.815Z,75.47
2022-08-29T01:43:52.395Z,75.10
2022-08-29T01:44:59.645Z,75.78
2022-08-29T01:46:01.754Z,75.40
2022-08-29T01:47:07.585Z,74.97
2022-08-29T01:48:09.669Z,72.78
2022-08-29T01:49:13.316Z,82.10
2022-08-29T01:50:15.976Z,71.90
2022-08-29T01:51:18.430Z,72.47
2022-08-29T01:52:21.355Z,67.93
2022-08-29T01:53:25.778Z,67.82
2022-08-29T01:54:28.695Z,70.63
2022-08-29T01:55:30.947Z,77.57
2022-08-29T01:56:35.240Z,70.28
2022-08-29T01:57:39.430Z,72.03
2022-08-29T01:58:42.928Z,69.15
2022-08-29T01:59:45.408Z,63.33
2022-08-29T02:00:47.610Z,66.47
2022-08-29T02:01:57.400Z,68.72
2022-08-29T02:03:01.413Z,63.55
2022-08-29T02:04:05.260Z,66.25
2022-08-29T02:05:07.627Z,63.25
2022-08-29T02:06:10.565Z,61.25
2022-08-29T02:07:13.031Z,55.28
2022-08-29T02:08:15.726Z,60.35
2022-08-29T02:09:17.979Z,60.88
2022-08-29T02:10:20.189Z,54.25
2022-08-29T02:11:23.397Z,63.67
2022-08-29T02:12:25.631Z,54.08
2022-08-29T02:13:28.434Z,59.20
2022-08-29T02:14:30.760Z,58.55
2022-08-29T02:15:33.093Z,53.92
2022-08-29T02:16:35.926Z,52.38
2022-08-29T02:17:38.706Z,55.03
2022-08-29T02:18:43.563Z,52.83
2022-08-29T02:19:46.183Z,53.92
2022-08-29T02:20:48.415Z,51.17
2022-08-29T02:21:50.890Z,55.85
2022-08-29T02:22:53.013Z,51.92
2022-08-29T02:23:57.763Z,51.50
2022-08-29T02:24:59.784Z,54.13
2022-08-29T02:26:02.044Z,52.90
2022-08-29T02:27:09.541Z,55.78
2022-08-29T02:28:13.698Z,51.72
2022-08-29T02:29:15.980Z,52.33
2022-08-29T02:30:19.857Z,51.53
2022-08-29T02:31:24.356Z,49.80
2022-08-29T02:32:26.718Z,50.50
2022-08-29T02:33:29.973Z,45.85
2022-08-29T02:34:36.665Z,48.08
2022-08-29T02:35:42.882Z,47.60
2022-08-29T02:36:45.378Z,48.55
2022-08-29T02:37:51.194Z,48.03
2022-08-29T02:38:54.192Z,52.60
2022-08-29T02:39:56.302Z,45.83
2022-08-29T02:41:01.310Z,52.03
2022-08-29T02:42:06.207Z,41.72
2022-08-29T02:43:08.835Z,45.83
2022-08-29T02:44:12.900Z,43.63
2022-08-29T02:45:15.118Z,40.50
2022-08-29T02:46:19.196Z,45.38
2022-08-29T02:47:21.458Z,40.83
2022-08-29T02:48:23.786Z,41.97
2022-08-29T02:49:25.960Z,39.80
2022-08-29T02:50:28.255Z,44.03
2022-08-29T02:51:32.549Z,42.95
2022-08-29T02:52:37.304Z,39.60
2022-08-29T02:53:39.640Z,43.08
2022-08-29T02:54:42.617Z,39.47
2022-08-29T02:55:47.244Z,43.28
2022-08-29T02:56:49.605Z,38.92
2022-08-29T02:57:53.249Z,35.17
2022-08-29T02:58:56.794Z,43.38
2022-08-29T02:59:58.855Z,40.22
2022-08-29T03:01:00.972Z,37.78
2022-08-29T03:02:12.034Z,39.90
2022-08-29T03:03:14.466Z,40.17
2022-08-29T03:04:18.031Z,38.50
2022-08-29T03:05:27.831Z,38.78
2022-08-29T03:06:29.927Z,44.00
2022-08-29T03:07:34.351Z,40.70
2022-08-29T03:08:38.357Z,42.15
2022-08-29T03:09:43.419Z,44.20
2022-08-29T03:10:48.021Z,35.15
2022-08-29T03:11:52.797Z,40.70
2022-08-29T03:12:55.595Z,35.28
2022-08-29T03:13:58.130Z,40.28
2022-08-29T03:15:00.548Z,34.40
2022-08-29T03:16:03.737Z,37.38
2022-08-29T03:17:08.903Z,40.33
2022-08-29T03:18:11.961Z,39.70
2022-08-29T03:19:14.002Z,38.60
2022-08-29T03:20:18.979Z,36.05
2022-08-29T03:21:23.851Z,40.15
2022-08-29T03:22:26.474Z,37.30
2022-08-29T03:23:28.775Z,36.85
2022-08-29T03:24:30.947Z,34.20
2022-08-29T03:25:33.088Z,35.25
2022-08-29T03:26:37.500Z,32.42
2022-08-29T03:27:43.550Z,42.78
2022-08-29T03:28:45.830Z,36.28
2022-08-29T03:29:47.884Z,40.97
2022-08-29T03:30:50.023Z,37.50
2022-08-29T03:31:52.088Z,40.85
2022-08-29T03:32:54.847Z,37.35
2022-08-29T03:33:57.279Z,40.20
2022-08-29T03:34:59.531Z,41.67
2022-08-29T03:36:02.065Z,39.75
2022-08-29T03:37:06.888Z,39.90
2022-08-29T03:38:11.694Z,39.33
2022-08-29T03:39:14.019Z,36.05
2022-08-29T03:40:17.000Z,40.65
2022-08-29T03:41:22.789Z,36.00
2022-08-29T03:42:24.938Z,40.58
2022-08-29T03:43:27.086Z,33.42
2022-08-29T03:44:29.154Z,35.45
2022-08-29T03:45:31.404Z,38.60
2022-08-29T03:46:33.586Z,37.63
2022-08-29T03:47:36.130Z,36.67
2022-08-29T03:48:38.288Z,36.40
2022-08-29T03:49:40.528Z,35.60
2022-08-29T03:50:43.400Z,36.35
2022-08-29T03:51:45.555Z,38.05
2022-08-29T03:52:48.446Z,35.25
2022-08-29T03:53:50.575Z,41.20
2022-08-29T03:54:53.424Z,40.25
2022-08-29T03:55:57.737Z,40.40
2022-08-29T03:56:59.822Z,40.55
2022-08-29T03:58:02.043Z,39.35
2022-08-29T03:59:04.566Z,37.63
2022-08-29T04:00:17.099Z,41.10
2022-08-29T04:01:28.834Z,37.97
2022-08-29T04:02:30.945Z,42.97
2022-08-29T04:03:33.052Z,39.13
2022-08-29T04:04:54.151Z,40.55
2022-08-29T04:05:56.271Z,37.67
2022-08-29T04:06:58.901Z,34.05
2022-08-29T04:08:01.148Z,36.45
2022-08-29T04:09:03.241Z,42.13
2022-08-29T04:10:08.376Z,43.15
2022-08-29T04:11:11.923Z,39.42
2022-08-29T04:12:14.379Z,36.67
2022-08-29T04:13:17.151Z,36.65
2022-08-29T04:14:21.540Z,33.67
2022-08-29T04:15:25.228Z,38.03
2022-08-29T04:16:31.348Z,38.38
2022-08-29T04:17:34.338Z,41.13
2022-08-29T04:18:36.666Z,32.28
2022-08-29T04:19:39.869Z,44.08
2022-08-29T04:20:46.059Z,37.40
2022-08-29T04:21:49.154Z,45.38
2022-08-29T04:22:52.339Z,39.17
2022-08-29T04:23:55.104Z,39.10
2022-08-29T04:24:57.305Z,40.90
2022-08-29T04:26:19.134Z,39.63
2022-08-29T04:27:21.750Z,35.47
2022-08-29T04:28:26.668Z,37.45
2022-08-29T04:29:34.698Z,37.95
2022-08-29T04:30:38.517Z,35.85
2022-08-29T04:31:42.546Z,41.88
2022-08-29T04:32:45.221Z,33.78
2022-08-29T04:33:48.932Z,36.92
2022-08-29T04:34:50.929Z,33.90
2022-08-29T04:35:53.425Z,35.90
2022-08-29T04:36:55.547Z,31.80
2022-08-29T04:37:57.869Z,38.10
2022-08-29T04:39:00.145Z,38.08
2022-08-29T04:40:02.668Z,39.05
2022-08-29T04:41:07.005Z,35.28
2022-08-29T04:42:09.166Z,35.47
2022-08-29T04:43:12.737Z,37.05
2022-08-29T04:44:14.857Z,35.70
2022-08-29T04:45:20.837Z,36.25
2022-08-29T04:46:26.208Z,40.25
2022-08-29T04:47:28.357Z,36.35
2022-08-29T04:48:30.436Z,36.75
2022-08-29T04:49:32.579Z,43.25
2022-08-29T04:50:34.819Z,41.78
2022-08-29T04:51:37.215Z,40.13
2022-08-29T04:52:39.488Z,38.90
2022-08-29T04:53:42.978Z,43.65
2022-08-29T04:54:45.306Z,39.53
2022-08-29T04:55:58.317Z,44.45
2022-08-29T04:57:03.420Z,41.55
2022-08-29T04:58:07.166Z,42.60
2022-08-29T04:59:13.180Z,47.55
2022-08-29T05:00:19.749Z,46.40
2022-08-29T05:01:24.457Z,49.03
2022-08-29T05:02:27.724Z,46.72
2022-08-29T05:03:34.684Z,44.90
2022-08-29T05:04:36.701Z,44.13
2022-08-29T05:05:40.080Z,46.83
2022-08-29T05:06:44.836Z,49.50
2022-08-29T05:07:47.201Z,48.25
2022-08-29T05:08:58.889Z,51.38
2022-08-29T05:10:11.995Z,49.40
2022-08-29T05:11:22.650Z,44.72
2022-08-29T05:12:30.138Z,47.90
2022-08-29T05:13:32.452Z,49.20
2022-08-29T05:14:36.911Z,51.35
2022-08-29T05:15:39.550Z,52.92
2022-08-29T05:16:42.968Z,44.65
2022-08-29T05:17:45.462Z,44.67
2022-08-29T05:18:47.960Z,47.10
2022-08-29T05:19:50.768Z,53.30
2022-08-29T05:20:52.855Z,47.13
2022-08-29T05:21:58.154Z,51.28
2022-08-29T05:23:00.643Z,51.97
2022-08-29T05:24:09.295Z,49.83
2022-08-29T05:25:17.993Z,50.70
2022-08-29T05:26:22.455Z,52.72
2022-08-29T05:27:25.007Z,49.17
2022-08-29T05:28:30.907Z,53.35
2022-08-29T05:29:33.440Z,52.80
2022-08-29T05:30:38.156Z,50.70
2022-08-29T05:31:44.366Z,50.38
2022-08-29T05:32:47.690Z,53.55
2022-08-29T05:33:53.425Z,52.17
2022-08-29T05:34:56.268Z,53.25
2022-08-29T05:35:59.076Z,55.80
2022-08-29T05:37:02.477Z,53.05
2022-08-29T05:38:09.176Z,50.97
2022-08-29T05:39:11.563Z,55.50
2022-08-29T05:40:16.591Z,52.30
2022-08-29T05:41:19.309Z,57.03
2022-08-29T05:42:23.072Z,51.20
2022-08-29T05:43:25.438Z,46.13
2022-08-29T05:44:34.319Z,49.78
2022-08-29T05:45:38.463Z,51.80
2022-08-29T05:46:40.778Z,50.78
2022-08-29T05:47:43.134Z,51.35
2022-08-29T05:48:45.935Z,50.17
2022-08-29T05:49:49.134Z,52.33
2022-08-29T05:50:51.290Z,50.83
2022-08-29T05:51:55.311Z,52.58
2022-08-29T05:52:57.689Z,53.92
2022-08-29T05:54:00.020Z,54.78
2022-08-29T05:55:02.212Z,55.67
2022-08-29T05:56:04.348Z,57.83
2022-08-29T05:57:08.532Z,57.95
2022-08-29T05:58:12.407Z,61.22
2022-08-29T05:59:16.246Z,58.28
2022-08-29T06:00:18.698Z,57.40
2022-08-29T06:01:26.304Z,59.95
2022-08-29T06:02:29.007Z,62.30
2022-08-29T06:03:31.724Z,54.08
2022-08-29T06:04:34.002Z,55.42
2022-08-29T06:05:36.353Z,62.85
2022-08-29T06:06:41.400Z,54.80
2022-08-29T06:07:45.641Z,55.28
2022-08-29T06:08:48.019Z,57.60
2022-08-29T06:09:53.146Z,60.08
2022-08-29T06:10:55.244Z,64.75
2022-08-29T06:11:58.598Z,59.53
2022-08-29T06:13:00.666Z,57.83
2022-08-29T06:14:02.976Z,59.10
2022-08-29T06:15:06.308Z,59.97
2022-08-29T06:16:12.604Z,53.90
2022-08-29T06:17:14.778Z,56.72
2022-08-29T06:18:17.095Z,60.22
2022-08-29T06:19:19.799Z,57.17
2022-08-29T06:20:21.954Z,56.28
2022-08-29T06:21:24.325Z,59.63
2022-08-29T06:22:26.570Z,66.63
2022-08-29T06:23:28.632Z,60.88
2022-08-29T06:24:33.473Z,58.20
2022-08-29T06:25:39.607Z,60.88
2022-08-29T06:26:45.202Z,58.92
2022-08-29T06:27:47.419Z,58.70
2022-08-29T06:28:50.255Z,54.15
2022-08-29T06:29:52.488Z,54.08
2022-08-29T06:30:54.711Z,57.25
2022-08-29T06:31:58.036Z,57.67
2022-08-29T06:33:01.298Z,59.72
2022-08-29T06:34:05.439Z,58.72
2022-08-29T06:35:07.972Z,56.78
2022-08-29T06:36:10.859Z,57.90
2022-08-29T06:37:13.119Z,56.05
2022-08-29T06:38:15.840Z,59.10
2022-08-29T06:39:19.708Z,55.15
2022-08-29T06:40:21.924Z,58.67
2022-08-29T06:41:25.218Z,58.13
2022-08-29T06:42:28.626Z,54.80
2022-08-29T06:43:31.306Z,56.25
2022-08-29T06:44:33.749Z,58.85
2022-08-29T06:45:40.922Z,57.35
2022-08-29T06:46:47.482Z,54.63
2022-08-29T06:47:49.535Z,57.58
2022-08-29T06:48:52.379Z,57.95
2022-08-29T06:49:54.479Z,63.65
2022-08-29T06:50:58.042Z,63.38
2022-08-29T06:52:00.416Z,58.80
2022-08-29T06:53:26.132Z,57.72
2022-08-29T06:54:29.616Z,55.42
2022-08-29T06:55:31.864Z,58.97
2022-08-29T06:56:36.559Z,57.75
2022-08-29T06:57:44.608Z,58.47
2022-08-29T06:58:46.848Z,52.38
2022-08-29T06:59:48.902Z,60.75
2022-08-29T07:00:51.059Z,54.85
2022-08-29T07:01:55.478Z,52.30
2022-08-29T07:02:58.193Z,61.10
2022-08-29T07:04:00.671Z,59.50
2022-08-29T07:05:04.923Z,61.33
2022-08-29T07:06:07.634Z,60.60
2022-08-29T07:07:10.259Z,61.63
2022-08-29T07:08:12.648Z,57.25
2022-08-29T07:09:14.872Z,55.83
2022-08-29T07:10:22.317Z,60.53
2022-08-29T07:11:27.183Z,59.73
2022-08-29T07:12:29.661Z,54.42
2022-08-29T07:13:35.378Z,58.72
2022-08-29T07:14:37.428Z,57.50
2022-08-29T07:15:39.497Z,63.72
2022-08-29T07:16:42.179Z,57.47
2022-08-29T07:17:44.226Z,53.45
2022-08-29T07:18:47.304Z,55.75
2022-08-29T07:19:52.315Z,50.35
2022-08-29T07:20:56.833Z,60.95
2022-08-29T07:21:59.809Z,52.65
2022-08-29T07:23:02.267Z,53.13
2022-08-29T07:24:07.608Z,52.33
2022-08-29T07:25:19.905Z,54.35
2022-08-29T07:26:28.856Z,50.58
2022-08-29T07:27:30.979Z,46.53
2022-08-29T07:28:35.080Z,43.47
2022-08-29T07:29:40.600Z,43.10
2022-08-29T07:30:45.069Z,44.30
2022-08-29T07:31:48.201Z,42.75
2022-08-29T07:32:51.087Z,42.42
2022-08-29T07:33:59.691Z,41.85
2022-08-29T07:35:07.768Z,38.53
2022-08-29T07:36:12.508Z,34.03
2022-08-29T07:37:14.878Z,39.47
2022-08-29T07:38:17.117Z,33.47
2022-08-29T07:39:20.026Z,35.17
2022-08-29T07:40:22.682Z,40.35
2022-08-29T07:41:25.802Z,40.53
2022-08-29T07:42:28.227Z,31.00
2022-08-29T07:43:30.634Z,35.45
2022-08-29T07:44:34.569Z,30.27
2022-08-29T07:45:42.751Z,28.58
2022-08-29T07:46:47.129Z,30.00
2022-08-29T07:47:49.446Z,33.10
2022-08-29T07:48:52.921Z,32.88
2022-08-29T07:49:55.284Z,29.50
2022-08-29T07:50:57.349Z,30.80
2022-08-29T07:52:00.624Z,30.55
2022-08-29T07:53:02.698Z,30.35
2022-08-29T07:54:06.946Z,29.05
2022-08-29T07:55:09.956Z,28.63
2022-08-29T07:56:16.445Z,25.50
2022-08-29T07:57:18.882Z,31.20
2022-08-29T07:58:24.006Z,23.83
2022-08-29T07:59:26.379Z,24.20
2022-08-29T08:00:30.793Z,30.15
2022-08-29T08:01:33.210Z,25.08
2022-08-29T08:02:35.787Z,24.35
2022-08-29T08:03:42.749Z,23.27
2022-08-29T08:04:45.323Z,26.25
2022-08-29T08:05:47.479Z,25.73
2022-08-29T08:06:49.876Z,22.63
2022-08-29T08:07:55.588Z,21.70
2022-08-29T08:09:01.851Z,26.30
2022-08-29T08:10:04.679Z,20.52
2022-08-29T08:11:08.850Z,24.77
2022-08-29T08:12:11.099Z,25.55
2022-08-29T08:13:13.261Z,21.60
2022-08-29T08:14:15.511Z,21.70
2022-08-29T08:15:18.471Z,22.65
2022-08-29T08:16:23.576Z,19.80
2022-08-29T08:17:26.183Z,26.55
2022-08-29T08:18:29.996Z,22.85
2022-08-29T08:19:32.661Z,18.70
2022-08-29T08:20:35.327Z,18.77
2022-08-29T08:21:38.095Z,20.40
2022-08-29T08:22:47.801Z,15.77
2022-08-29T08:23:50.301Z,23.80
2022-08-29T08:24:52.886Z,20.88
2022-08-29T08:25:55.085Z,24.45
2022-08-29T08:26:57.178Z,15.52
2022-08-29T08:28:01.701Z,15.15
2022-08-29T08:29:04.644Z,16.88
2022-08-29T08:30:07.372Z,20.40
2022-08-29T08:31:11.983Z,19.77
2022-08-29T08:32:16.882Z,17.17
2022-08-29T08:33:19.046Z,19.73
2022-08-29T08:34:21.488Z,21.30
2022-08-29T08:35:23.925Z,14.80
2022-08-29T08:36:31.360Z,19.73
2022-08-29T08:37:33.806Z,19.48
2022-08-29T08:38:39.351Z,21.33
2022-08-29T08:39:42.277Z,21.02
2022-08-29T08:40:50.849Z,14.98
2022-08-29T08:42:00.616Z,18.85
2022-08-29T08:43:03.835Z,18.17
2022-08-29T08:44:25.624Z,14.70
2022-08-29T08:45:48.039Z,16.52
2022-08-29T08:46:58.722Z,18.17
2022-08-29T08:48:10.388Z,19.27
2022-08-29T08:49:20.360Z,23.48
2022-08-29T08:50:42.585Z,18.23
2022-08-29T08:51:53.778Z,20.08
2022-08-29T08:53:00.850Z,15.60
2022-08-29T08:54:07.951Z,18.58
2022-08-29T08:55:26.387Z,22.33
2022-08-29T08:56:34.656Z,21.25
2022-08-29T08:57:51.664Z,17.95
2022-08-29T08:59:23.638Z,21.13
2022-08-29T09:00:27.412Z,13.70
2022-08-29T09:01:39.645Z,16.60
2022-08-29T09:03:06.948Z,21.25
2022-08-29T09:04:32.460Z,17.27
2022-08-29T09:06:15.895Z,16.90
2022-08-29T09:08:05.047Z,20.45
2022-08-29T09:09:33.758Z,15.73
2022-08-29T09:10:58.565Z,16.85
2022-08-29T09:12:21.761Z,22.30
2022-08-29T09:13:30.983Z,23.17
2022-08-29T09:14:45.375Z,16.80
2022-08-29T09:15:54.249Z,15.65
2022-08-29T09:17:00.630Z,17.77
2022-08-29T09:18:08.610Z,19.20
2022-08-29T09:19:17.227Z,24.13
2022-08-29T09:20:28.999Z,18.45
2022-08-29T09:21:41.627Z,17.90
2022-08-29T09:22:50.299Z,20.05
2022-08-29T09:23:59.850Z,17.42
2022-08-29T09:25:05.194Z,19.52
2022-08-29T09:26:07.587Z,18.70
2022-08-29T09:27:19.328Z,14.32
2022-08-29T09:28:21.929Z,13.23
2022-08-29T09:29:28.500Z,13.10
2022-08-29T09:30:33.765Z,18.33
2022-08-29T09:31:36.316Z,17.58
2022-08-29T09:33:00.963Z,20.52
2022-08-29T09:34:07.876Z,15.02
2022-08-29T09:35:29.266Z,15.07
2022-08-29T09:36:41.030Z,17.35
2022-08-29T09:37:43.126Z,18.15
2022-08-29T09:38:45.417Z,16.80
2022-08-29T09:40:01.606Z,13.27
2022-08-29T09:41:08.242Z,17.60
2022-08-29T09:42:13.714Z,15.30
2022-08-29T09:43:29.067Z,14.00
2022-08-29T09:44:33.569Z,20.10
2022-08-29T09:45:35.979Z,14.40
2022-08-29T09:46:38.487Z,18.38
2022-08-29T09:47:40.779Z,13.27
2022-08-29T09:48:49.342Z,16.08
2022-08-29T09:50:27.456Z,20.70
2022-08-29T09:51:41.934Z,20.42
2022-08-29T09:52:59.434Z,18.73
2022-08-29T09:54:28.960Z,14.18
2022-08-29T09:55:35.369Z,17.38
2022-08-29T09:56:41.098Z,16.40
2022-08-29T09:58:10.528Z,19.08
2022-08-29T09:59:28.898Z,16.50
2022-08-29T10:00:39.034Z,17.67
2022-08-29T10:01:43.687Z,20.30
2022-08-29T10:02:58.961Z,21.88
2022-08-29T10:04:04.087Z,18.63
2022-08-29T10:05:13.182Z,17.17
2022-08-29T10:06:20.296Z,20.95
2022-08-29T10:07:25.320Z,20.73
2022-08-29T10:08:36.716Z,23.88
2022-08-29T10:09:39.083Z,23.17
2022-08-29T10:10:52.499Z,21.88
2022-08-29T10:12:08.442Z,18.35
2022-08-29T10:13:23.287Z,15.93
2022-08-29T10:14:54.746Z,18.15
2022-08-29T10:16:36.002Z,24.83
2022-08-29T10:18:21.415Z,19.67
2022-08-29T10:19:33.120Z,21.38
2022-08-29T10:20:40.869Z,21.80
2022-08-29T10:22:04.107Z,22.52
2022-08-29T10:23:39.575Z,21.27
2022-08-29T10:25:08.974Z,22.90
2022-08-29T10:27:00.874Z,21.55
2022-08-29T10:28:06.017Z,18.40
2022-08-29T10:29:14.630Z,21.73
2022-08-29T10:30:20.554Z,20.80
2022-08-29T10:31:39.775Z,20.75
2022-08-29T10:32:57.966Z,17.95
2022-08-29T10:34:12.147Z,22.17
2022-08-29T10:35:23.095Z,22.15
2022-08-29T10:36:33.698Z,18.73
2022-08-29T10:37:51.948Z,25.23
2022-08-29T10:39:13.968Z,19.63
2022-08-29T10:40:43.562Z,17.02
2022-08-29T10:42:09.959Z,19.85
2022-08-29T10:43:20.092Z,18.13
2022-08-29T10:44:24.858Z,17.27
2022-08-29T10:45:45.305Z,14.93
2022-08-29T10:47:00.425Z,15.70
2022-08-29T10:48:16.178Z,19.38
2022-08-29T10:49:33.801Z,25.42
2022-08-29T10:50:44.558Z,15.25
2022-08-29T10:51:57.865Z,15.60
2022-08-29T10:53:02.757Z,15.40
2022-08-29T10:54:31.595Z,16.52
2022-08-29T10:55:39.862Z,26.38
2022-08-29T10:56:46.640Z,16.92
2022-08-29T10:58:03.756Z,23.23
2022-08-29T10:59:19.005Z,19.10
2022-08-29T11:00:40.468Z,18.52
2022-08-29T11:01:59.394Z,20.75
2022-08-29T11:03:23.155Z,16.75
2022-08-29T11:04:38.310Z,14.35
2022-08-29T11:05:49.181Z,18.70
2022-08-29T11:07:04.790Z,21.23
2022-08-29T11:08:33.626Z,17.73
2022-08-29T11:09:57.497Z,23.15
2022-08-29T11:11:01.644Z,18.67
2022-08-29T11:12:31.146Z,24.33
2022-08-29T11:13:42.453Z,19.92
2022-08-29T11:14:57.021Z,21.50
2022-08-29T11:16:07.514Z,21.88
2022-08-29T11:17:14.036Z,21.40
2022-08-29T11:18:29.065Z,24.00
2022-08-29T11:19:39.359Z,19.50
2022-08-29T11:20:48.038Z,16.35
2022-08-29T11:21:55.512Z,21.55
2022-08-29T11:23:27.780Z,25.35
2022-08-29T11:24:34.867Z,25.58
2022-08-29T11:25:42.188Z,35.25
2022-08-29T11:26:44.222Z,23.45
2022-08-29T11:28:12.315Z,19.88
2022-08-29T11:29:36.549Z,21.92
2022-08-29T11:30:55.989Z,19.83
2022-08-29T11:32:06.551Z,24.02
2022-08-29T11:33:19.391Z,17.05
2022-08-29T11:34:45.946Z,23.00
2022-08-29T11:36:12.351Z,20.63
2022-08-29T11:37:40.026Z,15.55
2022-08-29T11:38:47.886Z,20.33
2022-08-29T11:40:05.302Z,13.23
2022-08-29T11:41:27.531Z,17.48
2022-08-29T11:42:52.691Z,13.23
2022-08-29T11:44:11.896Z,20.77
2022-08-29T11:45:36.725Z,20.38
2022-08-29T11:46:52.898Z,17.55
2022-08-29T11:48:01.315Z,19.13
2022-08-29T11:49:21.818Z,19.38
2022-08-29T11:50:35.666Z,15.90
2022-08-29T11:51:41.987Z,18.98
2022-08-29T11:52:57.352Z,21.13
2022-08-29T11:54:25.417Z,22.08
2022-08-29T11:55:34.767Z,20.05
2022-08-29T11:56:37.124Z,19.17
2022-08-29T11:57:47.636Z,18.80
2022-08-29T11:58:58.073Z,21.45
2022-08-29T12:00:01.517Z,25.48
2022-08-29T12:01:32.241Z,24.60
2022-08-29T12:02:35.038Z,19.38
2022-08-29T12:03:37.438Z,28.85
2022-08-29T12:04:58.480Z,23.75
2022-08-29T12:06:35.348Z,26.48
2022-08-29T12:07:49.213Z,21.35
2022-08-29T12:09:13.215Z,19.45
2022-08-29T12:10:26.766Z,21.58
2022-08-29T12:11:59.811Z,20.90
2022-08-29T12:13:07.097Z,19.35
2022-08-29T12:14:09.306Z,20.48
2022-08-29T12:15:49.587Z,23.95
2022-08-29T12:16:53.845Z,24.05
2022-08-29T12:18:03.283Z,20.70
2022-08-29T12:19:08.316Z,29.88
2022-08-29T12:20:13.912Z,23.10
2022-08-29T12:21:33.823Z,20.63
2022-08-29T12:23:00.412Z,22.10
2022-08-29T12:24:04.645Z,24.77
2022-08-29T12:25:27.352Z,16.67
2022-08-29T12:26:45.630Z,16.75
2022-08-29T12:27:56.379Z,18.13
2022-08-29T12:29:00.608Z,25.73
2022-08-29T12:30:02.953Z,21.63
2022-08-29T12:31:20.331Z,19.98
2022-08-29T12:32:49.404Z,23.65
2022-08-29T12:34:03.492Z,22.33
2022-08-29T12:35:28.290Z,20.98
2022-08-29T12:36:53.022Z,22.42
2022-08-29T12:38:13.027Z,19.27
2022-08-29T12:39:44.981Z,22.00
2022-08-29T12:40:58.860Z,19.58
2022-08-29T12:42:09.711Z,17.90
2022-08-29T12:43:25.232Z,22.42
2022-08-29T12:44:34.297Z,18.08
2022-08-29T12:46:43.386Z,14.50
2022-08-29T12:47:50.914Z,18.88
2022-08-29T12:49:18.921Z,17.33
2022-08-29T12:50:37.014Z,18.80
2022-08-29T12:51:42.578Z,18.85
2022-08-29T12:53:00.005Z,18.13
2022-08-29T12:54:02.512Z,16.70
2022-08-29T12:55:33.972Z,15.02
2022-08-29T12:56:43.051Z,18.23
2022-08-29T12:57:47.579Z,18.17
2022-08-29T12:58:52.672Z,23.42
2022-08-29T12:59:56.367Z,18.65
2022-08-29T13:00:58.785Z,16.73
2022-08-29T13:02:01.997Z,23.02
2022-08-29T13:03:09.647Z,17.65
2022-08-29T13:04:20.133Z,19.58
2022-08-29T13:05:28.854Z,21.30
2022-08-29T13:06:34.008Z,23.42
2022-08-29T13:07:36.413Z,20.58
2022-08-29T13:08:38.553Z,17.60
2022-08-29T13:09:49.210Z,20.02
2022-08-29T13:11:03.651Z,19.65
2022-08-29T13:12:15.441Z,15.38
2022-08-29T13:13:21.357Z,19.90
2022-08-29T13:14:24.032Z,22.27
2022-08-29T13:15:30.918Z,17.25
2022-08-29T13:16:35.239Z,18.08
2022-08-29T13:17:40.360Z,17.35
2022-08-29T13:19:00.270Z,19.67
2022-08-29T13:20:40.378Z,18.13
2022-08-29T13:21:42.623Z,18.58
2022-08-29T13:22:44.772Z,21.40
2022-08-29T13:24:00.263Z,19.42
2022-08-29T13:25:05.286Z,17.88
2022-08-29T13:26:29.219Z,23.30
2022-08-29T13:27:31.254Z,21.45
2022-08-29T13:28:40.760Z,19.67
2022-08-29T13:29:43.172Z,15.40
2022-08-29T13:30:48.915Z,23.15
2022-08-29T13:32:12.478Z,20.60
2022-08-29T13:33:35.137Z,21.20
2022-08-29T13:34:37.923Z,18.95
2022-08-29T13:35:44.061Z,20.40
2022-08-29T13:37:00.403Z,16.55
2022-08-29T13:38:21.433Z,23.00
2022-08-29T13:39:29.540Z,24.27
2022-08-29T13:40:42.008Z,14.32
2022-08-29T13:41:47.381Z,16.98
2022-08-29T13:42:49.499Z,22.63
2022-08-29T13:43:52.017Z,14.32
2022-08-29T13:45:08.657Z,14.25
2022-08-29T13:46:15.185Z,20.35
2022-08-29T13:47:25.533Z,16.25
2022-08-29T13:48:27.748Z,17.48
2022-08-29T13:49:32.962Z,16.50
2022-08-29T13:50:35.234Z,19.10
2022-08-29T13:51:37.516Z,15.68
2022-08-29T13:52:39.664Z,19.60
2022-08-29T13:53:45.621Z,20.83
2022-08-29T13:54:48.114Z,16.90
2022-08-29T13:55:51.753Z,15.35
2022-08-29T13:56:56.509Z,16.92
2022-08-29T13:57:58.843Z,28.17
2022-08-29T13:59:01.724Z,14.63
2022-08-29T14:00:07.361Z,16.70
2022-08-29T14:02:34.672Z,18.85
2022-08-29T14:03:38.313Z,21.35
2022-08-29T14:04:49.482Z,17.02
2022-08-29T14:05:56.798Z,15.55
2022-08-29T14:07:00.299Z,13.30
2022-08-29T14:08:02.885Z,19.75
2022-08-29T14:09:05.284Z,16.30
2022-08-29T14:10:08.226Z,16.52
2022-08-29T14:11:11.302Z,16.35
2022-08-29T14:12:14.813Z,18.45
2022-08-29T14:13:17.387Z,13.25
2022-08-29T14:14:19.559Z,16.67
2022-08-29T14:15:21.715Z,17.33
2022-08-29T14:16:27.259Z,20.90
2022-08-29T14:17:29.421Z,20.90
2022-08-29T14:18:32.711Z,18.67
2022-08-29T14:19:36.057Z,12.48
2022-08-29T14:20:39.168Z,15.02
2022-08-29T14:21:41.243Z,15.73
2022-08-29T14:22:43.611Z,16.35
2022-08-29T14:23:46.455Z,17.65
2022-08-29T14:24:53.072Z,15.13
2022-08-29T14:25:55.479Z,13.63
2022-08-29T14:27:01.256Z,16.10
2022-08-29T14:28:04.750Z,15.25
2022-08-29T14:29:07.657Z,18.02
2022-08-29T14:30:12.283Z,14.05